Time;durP1;ratioP1;P1;durP2;ratioP2;P2;SDS_P1;SDS_P2;PMS_P1;PMS_P2;Temp;Humidity;BMP_temperature;BMP_pressure;BME280_temperature;BME280_humidity;BME280_pressure;Samples;Min_cycle;Max_cycle;Signal;HPM_P1;HPM_P2
2022/12/17 13:06:54;;;;;;;5.00;4.55;;;20.80;46.70;;;;;;5044486;28;44020;-58
2022/12/17 13:09:32;;;;;;;5.38;4.88;;;20.80;47.50;;;;;;5044615;28;43863;-58
2022/12/17 13:12:01;;;;;;;5.53;5.03;;;20.80;46.80;;;;;;5042818;28;43445;-58
2022/12/17 13:14:47;;;;;;;4.75;4.35;;;20.70;46.80;;;;;;5031761;28;43491;-58
2022/12/17 13:17:14;;;;;;;4.82;4.43;;;20.70;46.90;;;;;;5050091;28;43415;-58
2022/12/17 13:19:43;;;;;;;4.70;4.30;;;20.70;46.90;;;;;;5028816;28;43653;-59
2022/12/17 13:22:13;;;;;;;5.00;4.50;;;20.60;46.90;;;;;;5046523;28;43455;-58
2022/12/17 13:24:54;;;;;;;5.13;4.70;;;20.70;47.00;;;;;;5031818;28;43417;-58
2022/12/17 13:27:34;;;;;;;4.75;4.35;;;20.60;46.90;;;;;;5038653;28;43486;-58
2022/12/17 13:30:21;;;;;;;4.47;4.07;;;20.60;46.90;;;;;;5050215;28;43775;-58
2022/12/17 13:33:12;;;;;;;4.60;4.20;;;20.60;47.10;;;;;;5046745;28;43463;-59
2022/12/17 13:35:46;;;;;;;4.75;4.28;;;20.60;47.10;;;;;;4144520;28;10000939;-58
2022/12/17 13:38:28;;;;;;;4.75;4.32;;;20.60;47.10;;;;;;5054512;28;43454;-59
2022/12/17 13:41:02;;;;;;;4.65;4.25;;;20.60;47.20;;;;;;5039243;28;43516;-58
2022/12/17 13:43:52;;;;;;;4.35;4.05;;;20.50;47.10;;;;;;5050620;28;43589;-58
2022/12/17 13:46:26;;;;;;;5.45;4.95;;;20.50;47.10;;;;;;5046651;28;43794;-60
2022/12/17 13:49:03;;;;;;;4.93;4.53;;;20.50;47.30;;;;;;5043712;28;43472;-59
2022/12/17 13:51:33;;;;;;;5.10;4.60;;;20.50;47.10;;;;;;5052601;28;43436;-59
2022/12/17 13:54:03;;;;;;;5.18;4.78;;;20.50;47.10;;;;;;5050754;28;43541;-59
2022/12/17 13:56:36;;;;;;;4.90;4.50;;;20.40;47.10;;;;;;5044118;28;44019;-59
2022/12/17 13:59:04;;;;;;;4.80;4.40;;;20.40;47.10;;;;;;5047385;28;43455;-59
2022/12/17 14:01:53;;;;;;;5.07;4.68;;;20.40;47.10;;;;;;5043310;28;43521;-59
2022/12/17 14:04:26;;;;;;;5.85;4.72;;;20.30;47.10;;;;;;5048274;28;43448;-59
2022/12/17 14:06:59;;;;;;;5.30;4.80;;;20.30;47.20;;;;;;5041671;28;44040;-59
2022/12/17 14:09:42;;;;;;;4.85;4.45;;;20.30;47.20;;;;;;5044838;28;43682;-59
2022/12/17 14:12:20;;;;;;;5.35;4.55;;;20.20;47.20;;;;;;5049789;28;43582;-59
2022/12/17 14:14:55;;;;;;;5.40;4.90;;;20.20;47.30;;;;;;5053429;28;43438;-59
2022/12/17 14:17:29;;;;;;;5.72;5.03;;;20.20;47.30;;;;;;5039943;28;44945;-59
2022/12/17 14:20:12;;;;;;;5.40;5.00;;;20.10;47.30;;;;;;5037695;28;43483;-59
2022/12/17 14:22:46;;;;;;;5.20;4.80;;;20.10;47.50;;;;;;5025575;28;43455;-59
2022/12/17 14:25:27;;;;;;;4.90;4.50;;;20.10;47.30;;;;;;5047297;28;43540;-59
2022/12/17 14:27:59;;;;;;;5.20;4.70;;;20.10;47.30;;;;;;5041274;28;45327;-59
2022/12/17 14:30:41;;;;;;;5.30;4.80;;;20.10;47.30;;;;;;5047317;28;43919;-58
2022/12/17 14:33:36;;;;;;;5.38;4.88;;;20.10;47.30;;;;;;5052031;28;43510;-59
2022/12/17 14:36:22;;;;;;;5.28;4.78;;;20.00;47.30;;;;;;5043634;28;43432;-59
2022/12/17 14:38:54;;;;;;;5.72;4.95;;;20.00;47.40;;;;;;5039403;28;43984;-59
2022/12/17 14:44:26;;;;;;;5.38;4.88;;;20.00;47.40;;;;;;5033511;28;43465;-59
2022/12/17 14:47:12;;;;;;;5.18;4.63;;;20.00;47.50;;;;;;5043507;28;43611;-59
2022/12/17 14:49:53;;;;;;;5.57;4.72;;;19.90;47.50;;;;;;5040338;28;43623;-58
2022/12/17 14:52:39;;;;;;;4.85;4.45;;;19.90;47.50;;;;;;5039826;28;43505;-59
2022/12/17 14:55:24;;;;;;;5.45;4.95;;;19.90;47.40;;;;;;5045593;28;43389;-59
2022/12/17 14:58:04;;;;;;;5.22;4.72;;;19.90;47.50;;;;;;5042328;28;43473;-59
2022/12/17 15:00:33;;;;;;;5.07;4.68;;;19.90;47.40;;;;;;5028719;28;44299;-59
2022/12/17 15:03:00;;;;;;;5.18;4.78;;;19.90;47.50;;;;;;5048020;28;43435;-59
2022/12/17 15:05:28;;;;;;;4.93;4.32;;;19.80;47.50;;;;;;5048092;28;43478;-59
2022/12/17 15:07:56;;;;;;;5.78;5.22;;;19.80;47.60;;;;;;5055487;28;43437;-59
2022/12/17 15:10:23;;;;;;;5.43;4.75;;;19.80;47.60;;;;;;5047765;28;44027;-59
2022/12/17 15:12:52;;;;;;;5.13;4.70;;;19.80;47.60;;;;;;5050916;28;43551;-59
2022/12/17 15:15:20;;;;;;;5.22;4.72;;;19.80;47.60;;;;;;5043787;28;43349;-59
2022/12/17 15:17:48;;;;;;;5.50;5.00;;;19.80;47.60;;;;;;5028410;28;43430;-59
2022/12/17 15:20:19;;;;;;;5.60;5.00;;;19.70;47.60;;;;;;5045210;28;44718;-59
2022/12/17 15:22:47;;;;;;;5.78;5.28;;;19.70;47.60;;;;;;5038886;28;44584;-59
2022/12/17 15:25:17;;;;;;;6.85;4.78;;;19.70;47.70;;;;;;5039064;28;44024;-59
2022/12/17 15:27:45;;;;;;;5.57;5.07;;;19.70;47.70;;;;;;5035274;28;43512;-59
2022/12/17 15:30:14;;;;;;;6.20;5.55;;;19.70;47.70;;;;;;5034915;28;43955;-58
2022/12/17 15:32:43;;;;;;;7.32;5.20;;;19.70;47.60;;;;;;5046019;28;43476;-58
2022/12/17 15:35:12;;;;;;;5.70;5.10;;;19.60;47.60;;;;;;5030878;28;44016;-59
2022/12/17 15:37:39;;;;;;;5.95;5.32;;;19.60;47.70;;;;;;5030464;28;43524;-59
2022/12/17 15:40:10;;;;;;;7.20;5.43;;;19.70;47.70;;;;;;5043080;28;44064;-58
2022/12/17 15:45:32;;;;;;;6.57;5.28;;;19.60;47.50;;;;;;5030944;28;43448;-58
2022/12/17 15:48:00;;;;;;;5.80;5.30;;;19.60;47.60;;;;;;5046841;28;43507;-58
2022/12/17 15:50:27;;;;;;;6.32;5.40;;;19.60;47.60;;;;;;5038448;28;43759;-58
2022/12/17 15:52:55;;;;;;;7.00;5.25;;;19.60;47.60;;;;;;5044069;28;43474;-58
2022/12/17 15:55:22;;;;;;;6.35;5.75;;;19.60;47.60;;;;;;5026478;28;43485;-59
2022/12/17 15:57:50;;;;;;;6.50;5.43;;;19.60;47.60;;;;;;5048033;28;43502;-58
2022/12/17 16:00:18;;;;;;;6.03;5.07;;;19.60;47.60;;;;;;5037112;28;45304;-58
2022/12/17 16:02:47;;;;;;;5.68;5.18;;;19.50;47.60;;;;;;5036084;28;43359;-58
2022/12/17 16:09:31;;;;;;;;;;;19.70;50.20;;;;;;5129031;27;43655;-58
2022/12/17 16:11:59;;;;;;;;;;;20.20;46.70;;;;;;5115554;27;43531;-58
2022/12/17 16:14:26;;;;;;;;;;;20.50;45.90;;;;;;5102245;27;43361;-58
2022/12/17 16:16:53;;;;;;;;;;;20.50;45.90;;;;;;5119910;27;43445;-57
2022/12/17 16:19:22;;;;;;;;;;;20.40;45.90;;;;;;5113436;27;45005;-58
2022/12/17 16:21:49;;;;;;;;;;;20.30;46.00;;;;;;5102833;27;43446;-58
2022/12/17 16:24:17;;;;;;;;;;;20.20;46.20;;;;;;5117012;27;43441;-58
2022/12/17 16:26:44;;;;;;;;;;;20.10;46.30;;;;;;5119410;27;43419;-58
2022/12/17 16:29:13;;;;;;;;;;;20.00;46.50;;;;;;5108063;27;43776;-58
2022/12/17 16:31:40;;;;;;;;;;;19.90;46.70;;;;;;5084568;27;44046;-58
2022/12/17 16:34:09;;;;;;;;;;;19.80;46.80;;;;;;5115163;27;43434;-58
2022/12/17 16:36:36;;;;;;;;;;;19.70;46.80;;;;;;5107233;27;43526;-58
2022/12/17 16:39:04;;;;;;;;;;;19.60;47.00;;;;;;5088526;27;44734;-58
2022/12/17 16:41:32;;;;;;;;;;;19.60;47.00;;;;;;5117706;27;43483;-58
2022/12/17 16:44:00;;;;;;;;;;;19.60;47.20;;;;;;5103644;27;43490;-58
2022/12/17 16:46:28;;;;;;;;;;;19.50;47.30;;;;;;5111164;27;43489;-58
2022/12/17 16:48:57;;;;;;;;;;;19.50;47.30;;;;;;5110693;27;44022;-58
2022/12/17 16:51:25;;;;;;;;;;;19.40;47.30;;;;;;5115486;27;43573;-58
2022/12/17 16:53:56;;;;;;;;;;;19.40;47.30;;;;;;5104022;27;43394;-58
2022/12/17 16:56:24;;;;;;;;;;;19.40;47.40;;;;;;5109332;27;43561;-58
2022/12/17 16:58:53;;;;;;;;;;;19.40;47.40;;;;;;5098778;27;44044;-58
2022/12/17 17:01:22;;;;;;;;;;;19.40;47.40;;;;;;5099579;27;43493;-58
2022/12/17 17:03:49;;;;;;;;;;;19.30;47.40;;;;;;5113394;27;43465;-58
2022/12/17 17:06:17;;;;;;;;;;;19.30;47.50;;;;;;5108440;27;43427;-58
2022/12/17 17:08:46;;;;;;;;;;;19.30;47.40;;;;;;5114709;27;43773;-57
2022/12/17 17:11:20;;;;;;;;;;;19.30;47.40;;;;;;5112656;27;43548;-58
2022/12/17 17:13:48;;;;;;;;;;;19.30;48.10;;;;;;5112653;27;43404;-58
2022/12/17 17:16:16;;;;;;;;;;;19.20;47.40;;;;;;5102756;27;43525;-58
2022/12/17 17:18:44;;;;;;;;;;;19.20;47.50;;;;;;5101626;27;45238;-58
2022/12/17 17:21:15;;;;;;;;;;;19.20;47.60;;;;;;5109932;27;43728;-57
2022/12/17 17:23:43;;;;;;;;;;;19.20;47.80;;;;;;5097221;27;43450;-58
2022/12/17 17:26:12;;;;;;;;;;;19.20;47.80;;;;;;5096692;27;43430;-58
2022/12/17 17:28:40;;;;;;;;;;;19.20;47.80;;;;;;5088342;27;43778;-58
2022/12/17 17:31:09;;;;;;;;;;;19.20;47.80;;;;;;5102871;27;43788;-59
2022/12/17 17:33:38;;;;;;;;;;;19.20;47.80;;;;;;5099458;27;43403;-58
2022/12/17 17:36:06;;;;;;;;;;;19.20;47.70;;;;;;5102779;27;43462;-58
2022/12/17 17:38:34;;;;;;;;;;;19.30;47.70;;;;;;5091625;27;44600;-58
2022/12/17 17:41:03;;;;;;;;;;;19.30;47.50;;;;;;5103880;27;43484;-59
2022/12/17 17:43:31;;;;;;;;;;;19.30;47.50;;;;;;5096277;27;43423;-58
2022/12/17 17:46:04;;;;;;;;;;;19.30;47.60;;;;;;5096557;27;43449;-58
2022/12/17 17:48:33;;;;;;;;;;;19.20;47.50;;;;;;5102591;27;44084;-58
2022/12/17 17:51:03;;;;;;;;;;;19.20;47.50;;;;;;5096979;27;43391;-58
2022/12/17 17:53:31;;;;;;;;;;;19.20;47.60;;;;;;5098971;27;43431;-58
2022/12/17 17:56:06;;;;;;;;;;;19.20;47.60;;;;;;5104475;27;43980;-58
2022/12/17 17:58:33;;;;;;;;;;;19.20;47.70;;;;;;5087285;27;43876;-58
2022/12/17 18:01:09;;;;;;;;;;;19.20;47.70;;;;;;5102981;27;43741;-59
2022/12/17 18:03:37;;;;;;;;;;;19.10;47.70;;;;;;5095191;27;43452;-58
2022/12/17 18:06:07;;;;;;;;;;;19.10;47.60;;;;;;5087793;27;43533;-60
2022/12/17 18:08:35;;;;;;;;;;;19.20;47.70;;;;;;5106516;27;43740;-60
2022/12/17 18:11:04;;;;;;;;;;;19.20;47.70;;;;;;5102216;27;43599;-61
2022/12/17 18:16:29;;;;;;;;;;;19.10;47.60;;;;;;5083876;27;43508;-60
2022/12/17 18:18:59;;;;;;;;;;;19.10;47.60;;;;;;5091094;27;43784;-60
2022/12/17 18:21:29;;;;;;;;;;;19.10;47.60;;;;;;5094728;27;43780;-60
2022/12/17 18:24:01;;;;;;;;;;;19.10;47.70;;;;;;5099124;27;43447;-60
2022/12/17 18:26:30;;;;;;;;;;;19.10;47.60;;;;;;5083375;27;43490;-60
2022/12/17 18:29:03;;;;;;;;;;;19.20;47.70;;;;;;5094826;27;43767;-60
2022/12/17 18:31:30;;;;;;;;;;;19.20;47.70;;;;;;5106039;27;43471;-60
2022/12/17 18:33:59;;;;;;;;;;;19.20;47.60;;;;;;5088722;27;43434;-60
2022/12/17 18:36:27;;;;;;;;;;;19.20;47.60;;;;;;5096600;27;43442;-60
2022/12/17 18:38:56;;;;;;;;;;;19.20;47.60;;;;;;5093694;27;44062;-60
2022/12/17 18:44:11;;;;;;;;;;;19.20;47.60;;;;;;5092444;27;43467;-60
2022/12/17 18:46:38;;;;;;;;;;;19.30;47.60;;;;;;5094557;27;44202;-60
2022/12/17 18:49:07;;;;;;;;;;;19.30;47.50;;;;;;5087639;27;44137;-61
2022/12/17 18:51:36;;;;;;;;;;;19.30;47.60;;;;;;5100989;27;43567;-61
2022/12/17 18:54:05;;;;;;;;;;;19.30;47.60;;;;;;5098986;27;43406;-60
2022/12/17 18:56:33;;;;;;;;;;;19.30;47.50;;;;;;5096339;27;44339;-60
2022/12/17 18:59:21;;;;;;;;;;;19.30;47.40;;;;;;5090001;27;44977;-61
2022/12/17 19:01:55;;;;;;;;;;;19.30;47.60;;;;;;5091519;27;43466;-60
2022/12/17 19:04:24;;;;;;;;;;;19.40;47.50;;;;;;5086803;27;43419;-60
2022/12/17 19:06:52;;;;;;;;;;;19.40;47.40;;;;;;5092753;27;43454;-61
2022/12/17 19:09:24;;;;;;;;;;;19.40;47.40;;;;;;5090251;27;43790;-60
2022/12/17 19:11:53;;;;;;;;;;;19.40;47.40;;;;;;5094040;27;43584;-61
2022/12/17 19:14:22;;;;;;;;;;;19.40;47.40;;;;;;5091993;27;43470;-61
2022/12/17 19:16:50;;;;;;;;;;;19.40;47.30;;;;;;5102996;27;43426;-61
2022/12/17 19:19:18;;;;;;;;;;;19.40;47.40;;;;;;5087998;27;43796;-61
2022/12/17 19:21:47;;;;;;;;;;;19.40;47.30;;;;;;5089877;27;43477;-61
2022/12/17 19:24:15;;;;;;;;;;;19.50;47.40;;;;;;5091044;27;43423;-60
2022/12/17 19:26:43;;;;;;;;;;;19.50;47.30;;;;;;5098214;27;43632;-60
2022/12/17 19:29:12;;;;;;;;;;;19.50;47.30;;;;;;5092582;27;44034;-60
2022/12/17 19:31:39;;;;;;;;;;;19.60;47.30;;;;;;5092284;27;43428;-61
2022/12/17 19:34:09;;;;;;;;;;;19.50;47.20;;;;;;5105285;27;43790;-60
2022/12/17 19:36:37;;;;;;;;;;;19.60;47.20;;;;;;5097064;27;43600;-60
2022/12/17 19:39:06;;;;;;;;;;;19.60;47.20;;;;;;5091930;27;43772;-61
2022/12/17 19:41:33;;;;;;;;;;;19.60;47.20;;;;;;5103192;27;44099;-61
2022/12/17 19:44:02;;;;;;;;;;;19.60;47.20;;;;;;5095428;27;43428;-61
2022/12/17 19:46:30;;;;;;;;;;;19.60;47.10;;;;;;5089760;27;43645;-61
2022/12/17 19:48:58;;;;;;;;;;;19.60;47.10;;;;;;5088854;27;44992;-61
2022/12/17 19:51:27;;;;;;;;;;;19.70;47.10;;;;;;5100937;27;43540;-61
2022/12/17 19:53:54;;;;;;;;;;;19.70;47.10;;;;;;5102226;27;43454;-62
2022/12/17 19:56:23;;;;;;;;;;;19.70;47.30;;;;;;5085461;27;43581;-60
2022/12/17 19:58:53;;;;;;;;;;;19.70;47.30;;;;;;5088651;27;44962;-59
2022/12/17 20:01:24;;;;;;;;;;;19.80;47.20;;;;;;5098787;27;43444;-60
2022/12/17 20:03:53;;;;;;;;;;;19.80;47.10;;;;;;5102762;27;43473;-61
2022/12/17 20:06:22;;;;;;;;;;;19.80;47.10;;;;;;5093055;27;43445;-60
2022/12/17 20:08:50;;;;;;;;;;;19.80;47.10;;;;;;5100506;27;45117;-61
2022/12/17 20:11:33;;;;;;;;;;;19.80;47.10;;;;;;5105152;27;43482;-61
2022/12/17 20:14:12;;;;;;;;;;;19.80;47.00;;;;;;5092733;27;43483;-61
2022/12/17 20:16:41;;;;;;;;;;;19.80;47.00;;;;;;5107138;27;43399;-61
2022/12/17 20:19:13;;;;;;;;;;;19.80;46.90;;;;;;5096370;27;43791;-61
2022/12/17 20:21:41;;;;;;;;;;;19.90;47.00;;;;;;5083889;27;43500;-61
2022/12/17 20:24:09;;;;;;;;;;;19.90;46.90;;;;;;5107032;27;43484;-60
2022/12/17 20:26:37;;;;;;;;;;;20.00;46.90;;;;;;5093594;27;43696;-60
2022/12/17 20:29:05;;;;;;;;;;;20.00;46.80;;;;;;5097688;27;43790;-60
2022/12/17 20:31:33;;;;;;;;;;;20.00;46.80;;;;;;5096866;27;44081;-61
2022/12/17 20:34:02;;;;;;;;;;;20.10;46.70;;;;;;5104446;27;43466;-61
2022/12/17 20:36:29;;;;;;;;;;;20.10;46.70;;;;;;5102170;27;43603;-62
2022/12/17 20:38:57;;;;;;;;;;;20.10;46.90;;;;;;5098797;27;44073;-59
2022/12/17 20:41:26;;;;;;;;;;;20.10;46.80;;;;;;5090019;27;43496;-59
2022/12/17 20:43:53;;;;;;;;;;;20.10;46.70;;;;;;5096886;27;43388;-59
2022/12/17 20:46:22;;;;;;;;;;;20.10;47.60;;;;;;5092099;27;43440;-63
2022/12/17 20:48:54;;;;;;;;;;;20.20;46.90;;;;;;5087944;27;44691;-60
2022/12/17 20:51:22;;;;;;;;;;;20.20;46.70;;;;;;5102289;27;43356;-60
2022/12/17 20:53:51;;;;;;;;;;;20.20;47.30;;;;;;5092675;27;43507;-60
2022/12/17 20:56:21;;;;;;;;;;;20.20;46.60;;;;;;5097701;27;43611;-60
2022/12/17 20:58:56;;;;;;;;;;;20.30;46.60;;;;;;5106463;27;43899;-60
2022/12/17 21:01:25;;;;;;;;;;;20.30;46.60;;;;;;5097267;27;43440;-61
2022/12/17 21:03:53;;;;;;;;;;;20.30;46.60;;;;;;5089608;27;43540;-61
2022/12/17 21:06:22;;;;;;;;;;;20.30;46.50;;;;;;5101281;27;43631;-61
2022/12/17 21:08:50;;;;;;;;;;;20.30;46.60;;;;;;5093155;27;43867;-60
2022/12/17 21:11:19;;;;;;;;;;;20.30;46.50;;;;;;5092300;27;43473;-60
2022/12/17 21:13:47;;;;;;;;;;;20.40;46.50;;;;;;5097205;27;43434;-61
2022/12/17 21:16:15;;;;;;;;;;;20.40;46.50;;;;;;5103543;27;43604;-61
2022/12/17 21:18:43;;;;;;;;;;;20.40;47.30;;;;;;5098439;27;43664;-61
2022/12/17 21:21:12;;;;;;;;;;;20.40;46.50;;;;;;5092657;27;43484;-61
2022/12/17 21:23:40;;;;;;;;;;;20.40;46.50;;;;;;5100721;27;43477;-61
2022/12/17 21:26:09;;;;;;;;;;;20.40;46.50;;;;;;5108295;27;43521;-61
2022/12/17 21:28:37;;;;;;;;;;;20.40;46.50;;;;;;5091856;27;43872;-62
2022/12/17 21:31:12;;;;;;;;;;;20.40;46.50;;;;;;5094176;27;43495;-62
2022/12/17 21:33:40;;;;;;;;;;;20.40;46.50;;;;;;5096604;27;43427;-61
2022/12/17 21:36:08;;;;;;;;;;;20.40;46.60;;;;;;5097887;27;43588;-61
2022/12/17 21:38:35;;;;;;;;;;;20.40;46.50;;;;;;5088787;27;43804;-61
2022/12/17 21:41:13;;;;;;;;;;;20.40;46.40;;;;;;5103723;27;43580;-61
2022/12/17 21:43:41;;;;;;;;;;;20.40;46.40;;;;;;5093987;27;43427;-61
2022/12/17 21:46:09;;;;;;;;;;;20.40;46.40;;;;;;5099855;27;43488;-62
2022/12/17 21:48:38;;;;;;;;;;;20.40;46.40;;;;;;5085347;27;44723;-61
2022/12/17 21:51:09;;;;;;;;;;;20.40;46.40;;;;;;5091023;27;43436;-61
2022/12/17 21:53:42;;;;;;;;;;;20.40;46.40;;;;;;5093865;27;43420;-61
2022/12/17 21:56:13;;;;;;;;;;;20.40;46.40;;;;;;5101344;27;43486;-62
2022/12/17 21:58:42;;;;;;;;;;;20.40;46.30;;;;;;5087588;27;44679;-61
2022/12/17 22:01:11;;;;;;;;;;;20.40;46.30;;;;;;5096221;27;43989;-61
2022/12/17 22:03:48;;;;;;;;;;;20.30;46.30;;;;;;5098490;27;43458;-61
2022/12/17 22:06:24;;;;;;;;;;;20.30;46.30;;;;;;5087788;27;43437;-62
2022/12/17 22:08:59;;;;;;;;;;;20.30;46.30;;;;;;5103103;27;43860;-61
2022/12/17 22:11:40;;;;;;;;;;;20.30;46.20;;;;;;5089084;27;43392;-61
2022/12/17 22:14:10;;;;;;;;;;;20.30;46.20;;;;;;5086993;27;43415;-62
2022/12/17 22:16:47;;;;;;;;;;;20.30;46.20;;;;;;5096752;27;43490;-62
2022/12/17 22:19:18;;;;;;;;;;;20.30;46.20;;;;;;5095229;27;44180;-61
2022/12/17 22:21:49;;;;;;;;;;;20.30;46.20;;;;;;5087819;27;43445;-62
2022/12/17 22:24:18;;;;;;;;;;;20.30;46.20;;;;;;5084696;27;43365;-62
2022/12/17 22:26:46;;;;;;;;;;;20.20;46.10;;;;;;5092774;27;43456;-62
2022/12/17 22:34:47;;;;;;;;;;;20.20;46.20;;;;;;5082757;27;43422;-62
2022/12/17 22:37:34;;;;;;;;;;;20.20;46.20;;;;;;5085325;27;43395;-62
2022/12/17 22:40:21;;;;;;;;;;;20.20;46.20;;;;;;5095580;27;44046;-61
2022/12/17 22:43:28;;;;;;;;;;;20.10;46.20;;;;;;5098025;27;43404;-62
2022/12/17 22:46:15;;;;;;;;;;;20.20;46.20;;;;;;5097007;27;43366;-62
2022/12/17 22:48:43;;;;;;;;;;;20.10;46.30;;;;;;5094901;27;43607;-62
2022/12/17 22:51:11;;;;;;;;;;;20.10;46.20;;;;;;5087546;27;44024;-62
2022/12/17 22:53:59;;;;;;;;;;;20.10;46.20;;;;;;5089359;27;43433;-62
2022/12/17 22:56:26;;;;;;;;;;;20.10;46.20;;;;;;5093350;27;43463;-62
2022/12/17 22:59:15;;;;;;;;;;;20.10;46.20;;;;;;5100253;27;43418;-63
2022/12/17 23:01:43;;;;;;;;;;;20.10;46.20;;;;;;5087740;27;44682;-62
2022/12/17 23:04:12;;;;;;;;;;;20.00;46.10;;;;;;5094207;27;43818;-62
2022/12/17 23:06:40;;;;;;;;;;;20.10;46.20;;;;;;5097512;27;43465;-62
2022/12/17 23:09:07;;;;;;;;;;;20.10;46.20;;;;;;5100156;27;43548;-62
2022/12/17 23:11:34;;;;;;;;;;;20.00;46.20;;;;;;5089130;27;44134;-62
2022/12/17 23:14:02;;;;;;;;;;;20.00;46.20;;;;;;5094056;27;43413;-62
2022/12/17 23:16:29;;;;;;;;;;;20.00;46.20;;;;;;5096734;27;43460;-62
2022/12/17 23:18:59;;;;;;;;;;;20.00;46.20;;;;;;5095166;27;43640;-62
2022/12/17 23:21:26;;;;;;;;;;;20.00;46.20;;;;;;5089421;27;43873;-62
2022/12/17 23:23:54;;;;;;;;;;;20.00;46.20;;;;;;5092590;27;43420;-62
2022/12/17 23:26:21;;;;;;;;;;;19.90;46.20;;;;;;5088915;27;43475;-62
2022/12/17 23:28:53;;;;;;;;;;;19.90;46.10;;;;;;5084271;27;43464;-62
2022/12/17 23:31:24;;;;;;;;;;;19.90;46.80;;;;;;5096599;27;45166;-62
2022/12/17 23:33:52;;;;;;;;;;;19.90;46.20;;;;;;5093706;27;44104;-62
2022/12/17 23:36:21;;;;;;;;;;;19.90;46.20;;;;;;5087831;27;43545;-62
2022/12/17 23:38:49;;;;;;;;;;;19.90;46.20;;;;;;5099009;27;43524;-62
2022/12/17 23:41:20;;;;;;;;;;;19.80;46.20;;;;;;5090172;27;44298;-62
2022/12/17 23:43:48;;;;;;;;;;;19.80;46.20;;;;;;5090232;27;43432;-62
2022/12/17 23:46:16;;;;;;;;;;;19.80;46.10;;;;;;5098932;27;43397;-62
2022/12/17 23:48:45;;;;;;;;;;;19.80;46.10;;;;;;5098184;27;43578;-62
2022/12/17 23:51:17;;;;;;;;;;;19.80;46.10;;;;;;5089950;27;43900;-62
2022/12/17 23:53:45;;;;;;;;;;;19.80;46.20;;;;;;5090029;27;43426;-62
2022/12/17 23:56:14;;;;;;;;;;;19.80;46.20;;;;;;5099141;27;43548;-62
2022/12/17 23:58:42;;;;;;;;;;;19.80;46.20;;;;;;5089586;27;43536;-62
